TimePST,TemperatureF,Dew PointF,Humidity,Sea Level PressureIn,VisibilityMPH,Wind Direction,Wind SpeedMPH,Gust SpeedMPH,PrecipitationIn,Events,Conditions,WindDirDegrees,DateUTC
12:48 AM,55.0,21.9,28,30.16,10.0,ENE,13.8,-,N/A,,Clear,70,2012-11-24 08:48:00
1:48 AM,-9999,-9999,N/A,-9999,-9999.0,North,-9999.0,-,N/A,,Unknown,0,2012-11-24 09:48:00
2:48 AM,55.0,19.0,24,30.14,10.0,ENE,13.8,-,N/A,,Clear,70,2012-11-24 10:48:00
3:48 AM,55.0,19.0,24,30.14,10.0,ENE,12.7,-,N/A,,Clear,70,2012-11-24 11:48:00
4:48 AM,55.0,18.0,23,30.14,10.0,East,15.0,-,N/A,,Clear,80,2012-11-24 12:48:00
5:48 AM,54.0,19.0,25,30.14,10.0,ENE,11.5,-,N/A,,Clear,70,2012-11-24 13:48:00
6:48 AM,55.0,19.9,25,30.15,10.0,ENE,12.7,-,N/A,,Clear,70,2012-11-24 14:48:00
8:48 AM,59.0,21.0,23,30.15,10.0,ENE,11.5,-,N/A,,Clear,70,2012-11-24 16:48:00
9:48 AM,62.1,21.0,21,30.15,10.0,ENE,9.2,16.1,N/A,,Clear,70,2012-11-24 17:48:00
10:48 AM,64.0,19.9,18,30.12,10.0,ENE,12.7,18.4,N/A,,Clear,70,2012-11-24 18:48:00
11:48 AM,64.9,19.9,18,30.09,10.0,ENE,11.5,-,N/A,,Clear,70,2012-11-24 19:48:00
12:48 PM,66.0,19.0,17,30.06,10.0,NE,10.4,-,N/A,,Clear,40,2012-11-24 20:48:00
1:48 PM,64.9,19.0,17,30.05,10.0,ENE,8.1,-,N/A,,Clear,70,2012-11-24 21:48:00
2:48 PM,64.9,19.0,17,30.04,10.0,ENE,8.1,-,N/A,,Clear,60,2012-11-24 22:48:00
3:48 PM,63.0,19.9,19,30.03,10.0,ENE,4.6,-,N/A,,Clear,60,2012-11-24 23:48:00
4:48 PM,59.0,19.0,21,30.03,10.0,NE,4.6,-,N/A,,Clear,40,2012-11-25 00:48:00
5:48 PM,59.0,19.0,21,30.03,10.0,NNE,5.8,-,N/A,,Clear,30,2012-11-25 01:48:00
6:48 PM,57.9,18.0,21,30.02,10.0,NNE,3.5,-,N/A,,Clear,30,2012-11-25 02:48:00
7:48 PM,57.9,21.9,25,30.01,10.0,NNW,8.1,-,N/A,,Clear,330,2012-11-25 03:48:00
8:48 PM,57.9,21.0,24,30.01,10.0,NNW,10.4,-,N/A,,Clear,330,2012-11-25 04:48:00
9:48 PM,57.9,21.0,24,30.00,10.0,NNW,8.1,-,N/A,,Clear,330,2012-11-25 05:48:00
11:48 PM,59.0,19.9,22,29.97,10.0,NNW,5.8,-,N/A,,Clear,330,2012-11-25 07:48:00